Aérodrome :
LOGIN :

S'inscrire | Disclaimer

   EN    FR    IT 

 










Légende :    VFR   VFR Marginal   IFR   IFR Intensif   IFR Très Intensif
Visi : 
Plafond : 
>= 8 km
>= 3000ft
5 à 8 km
1000 à 3000 ft
1500m à 5 km
500 à 1000 ft
800 à 1500m
200 à 500 ft
< 800m
< 200 ft
Symboles :   Orages  Brouillard  Fortes neiges  Fortes précipitations  Vent > 20 kt
SIGMETs :   Divers  Orages  Givrage  Turbulence  Onde Orograph.  Cendres Volcan.







- Altitude de l'aérodrome : 1900 ft
- Code IATA : FEZ


GMFF - Fez Saiss

DERNIER METAR :
  • 141700Z 32009KT 280V010 CAVOK 35/08 Q1018 NOSIG

METARs EXPIRÉS :
  • 141630Z 32010KT 280V360 CAVOK 35/08 Q1018 NOSIG
  • 141600Z 32010KT 270V360 CAVOK 35/08 Q1018 NOSIG
  • 141530Z VRB08KT CAVOK 36/08 Q1018 NOSIG
  • 141500Z 31010KT 270V360 CAVOK 36/08 Q1018 NOSIG
  • 141430Z 31010KT 290V350 CAVOK 36/08 Q1019 NOSIG

TAF TAF GMFF
Valide du 14 à 12h jusqu'au 15 à 18h UTC


141100Z 1412/1518 32006KT 9999 FEW030
BECMG 1413/1417 32010KT
BECMG 1419/1422 28004KT CAVOK
BECMG 1512/1516 30012KT FEW030 SCT233
Pas de NOTAMs connus pour ce terrain.
1 SIGMET publié pour la FIR Casablanca (GMMM) :
 
Orages noyés dans la masse
GMMM SIGMET 01 VALID 141520/141920 GMMC
GMMM CASABLANCA FIR EMBD TS FCST S OF LINE N2918 W00900 - N3051 W009 02 - N3248 W00421 - N3221 W00235 TOP FL260 STNR NC=



MET'MAP, la Météo Aéronautique d'un coup d'oeil ! - Copyright ORBIFLY Décembre 2007 - Disclaimer

ORBIFLY MET'MAP TEAM :

Programmation & Développement : Alexandra Zaïnal
Conception & Développement : Baudouin d'Aumeries
Co-Programmation & Développement : Marc-Olivier Méhu
Soutien technique & logistique : Manuel Goepfert

Contact : metmap@orbifly.com




SOURCES & CREDITS :

   NOAA